<?xml version="1.0" encoding="UTF-8" standalone="no" ?>
<gpx xmlns="http://www.topografix.com/GPX/1/1" xmlns:xsi="http://www.w3.org/2001/XMLSchema-instance" xsi:schemaLocation="http://www.topografix.com/GPX/1/1 http://www.topografix.com/GPX/1/1/gpx.xsd" version="1.1" creator="VisuGPX - https://www.visugpx.com">
  <metadata>
    <name>Transcaucasie: Géorgie + Arménie</name>
  </metadata>
  <trk>
    <name><![CDATA[Tour d'Europe: étape 477]]></name>
    <extensions>
      <line xmlns="http://www.topografix.com/GPX/gpx_style/0/2">
        <color>FF00FF</color>
        <width>4</width>
      </line>
    </extensions>
    <trkseg>
      <trkpt lat="41.2299" lon="44.83576">
        <ele>466.979773</ele>
        <time>2021-10-18T04:49:49.796Z</time>
      </trkpt>
      <trkpt lat="41.23028" lon="44.83675">
        <ele>467.782438</ele>
        <time>2021-10-18T04:53:27.892Z</time>
      </trkpt>
      <trkpt lat="41.23006" lon="44.83958">
        <ele>472.148239</ele>
        <time>2021-10-18T04:54:43.877Z</time>
      </trkpt>
      <trkpt lat="41.23051" lon="44.84235">
        <ele>470.697929</ele>
        <time>2021-10-18T04:55:42.860Z</time>
      </trkpt>
      <trkpt lat="41.23075" lon="44.84525">
        <ele>470.387832</ele>
        <time>2021-10-18T04:56:35.870Z</time>
      </trkpt>
      <trkpt lat="41.23068" lon="44.84844">
        <ele>465.937058</ele>
        <time>2021-10-18T04:57:22.864Z</time>
      </trkpt>
      <trkpt lat="41.22964" lon="44.85137">
        <ele>468.352974</ele>
        <time>2021-10-18T04:58:20.861Z</time>
      </trkpt>
      <trkpt lat="41.22885" lon="44.85389">
        <ele>479.584487</ele>
        <time>2021-10-18T05:00:01.927Z</time>
      </trkpt>
      <trkpt lat="41.22776" lon="44.8564">
        <ele>478.471223</ele>
        <time>2021-10-18T05:01:04.880Z</time>
      </trkpt>
      <trkpt lat="41.22608" lon="44.85806">
        <ele>478.976514</ele>
        <time>2021-10-18T05:01:59.888Z</time>
      </trkpt>
      <trkpt lat="41.22475" lon="44.86019">
        <ele>483.741063</ele>
        <time>2021-10-18T05:03:09.865Z</time>
      </trkpt>
      <trkpt lat="41.22449" lon="44.86338">
        <ele>474.883306</ele>
        <time>2021-10-18T05:03:49.885Z</time>
      </trkpt>
      <trkpt lat="41.22255" lon="44.86485">
        <ele>469.322429</ele>
        <time>2021-10-18T05:04:13.857Z</time>
      </trkpt>
      <trkpt lat="41.22044" lon="44.86598">
        <ele>471.838831</ele>
        <time>2021-10-18T05:04:54.917Z</time>
      </trkpt>
      <trkpt lat="41.2186" lon="44.8672">
        <ele>474.402921</ele>
        <time>2021-10-18T05:05:37.862Z</time>
      </trkpt>
      <trkpt lat="41.21821" lon="44.8701">
        <ele>477.902023</ele>
        <time>2021-10-18T05:06:37.878Z</time>
      </trkpt>
      <trkpt lat="41.21951" lon="44.87254">
        <ele>473.593647</ele>
        <time>2021-10-18T05:07:31.895Z</time>
      </trkpt>
      <trkpt lat="41.2197" lon="44.87535">
        <ele>479.672182</ele>
        <time>2021-10-18T05:08:32.864Z</time>
      </trkpt>
      <trkpt lat="41.21961" lon="44.87818">
        <ele>482.821221</ele>
        <time>2021-10-18T05:09:32.868Z</time>
      </trkpt>
      <trkpt lat="41.22106" lon="44.88063">
        <ele>478.464061</ele>
        <time>2021-10-18T05:10:31.855Z</time>
      </trkpt>
      <trkpt lat="41.22174" lon="44.88367">
        <ele>477.723521</ele>
        <time>2021-10-18T05:11:31.912Z</time>
      </trkpt>
      <trkpt lat="41.22194" lon="44.88681">
        <ele>484.427996</ele>
        <time>2021-10-18T05:12:31.850Z</time>
      </trkpt>
      <trkpt lat="41.22194" lon="44.89014">
        <ele>483.500081</ele>
        <time>2021-10-18T05:13:34.844Z</time>
      </trkpt>
      <trkpt lat="41.2211" lon="44.89267">
        <ele>480.293734</ele>
        <time>2021-10-18T05:14:36.871Z</time>
      </trkpt>
      <trkpt lat="41.21896" lon="44.8941">
        <ele>483.464107</ele>
        <time>2021-10-18T05:15:34.897Z</time>
      </trkpt>
      <trkpt lat="41.2169" lon="44.89546">
        <ele>486.00737</ele>
        <time>2021-10-18T05:16:34.873Z</time>
      </trkpt>
      <trkpt lat="41.21508" lon="44.89671">
        <ele>489.247552</ele>
        <time>2021-10-18T05:17:44.866Z</time>
      </trkpt>
      <trkpt lat="41.2138" lon="44.89895">
        <ele>490.25545</ele>
        <time>2021-10-18T05:18:53.857Z</time>
      </trkpt>
      <trkpt lat="41.21243" lon="44.90135">
        <ele>495.0093</ele>
        <time>2021-10-18T05:19:55.872Z</time>
      </trkpt>
      <trkpt lat="41.21034" lon="44.90263">
        <ele>491.87474</ele>
        <time>2021-10-18T05:20:50.865Z</time>
      </trkpt>
      <trkpt lat="41.20838" lon="44.90405">
        <ele>493.931055</ele>
        <time>2021-10-18T05:21:50.891Z</time>
      </trkpt>
      <trkpt lat="41.20707" lon="44.90607">
        <ele>501.378135</ele>
        <time>2021-10-18T05:22:52.874Z</time>
      </trkpt>
      <trkpt lat="41.20513" lon="44.9055">
        <ele>501.824788</ele>
        <time>2021-10-18T05:23:57.854Z</time>
      </trkpt>
      <trkpt lat="41.20315" lon="44.9055">
        <ele>501.518458</ele>
        <time>2021-10-18T05:25:09.857Z</time>
      </trkpt>
      <trkpt lat="41.20134" lon="44.9069">
        <ele>504.64104</ele>
        <time>2021-10-18T05:26:30.880Z</time>
      </trkpt>
      <trkpt lat="41.19954" lon="44.90773">
        <ele>508.566194</ele>
        <time>2021-10-18T05:27:30.873Z</time>
      </trkpt>
      <trkpt lat="41.19752" lon="44.90702">
        <ele>511.400642</ele>
        <time>2021-10-18T05:28:42.930Z</time>
      </trkpt>
      <trkpt lat="41.19583" lon="44.90554">
        <ele>512.622792</ele>
        <time>2021-10-18T05:29:32.871Z</time>
      </trkpt>
      <trkpt lat="41.19456" lon="44.90344">
        <ele>516.237822</ele>
        <time>2021-10-18T05:30:34.864Z</time>
      </trkpt>
      <trkpt lat="41.19223" lon="44.90377">
        <ele>512.402133</ele>
        <time>2021-10-18T05:31:25.878Z</time>
      </trkpt>
      <trkpt lat="41.19089" lon="44.90114">
        <ele>509.221995</ele>
        <time>2021-10-18T05:32:07.875Z</time>
      </trkpt>
      <trkpt lat="41.18959" lon="44.89883">
        <ele>510.770689</ele>
        <time>2021-10-18T05:33:06.859Z</time>
      </trkpt>
      <trkpt lat="41.18904" lon="44.89584">
        <ele>505.291657</ele>
        <time>2021-10-18T05:33:54.881Z</time>
      </trkpt>
      <trkpt lat="41.18815" lon="44.89333">
        <ele>507.208115</ele>
        <time>2021-10-18T05:34:54.870Z</time>
      </trkpt>
      <trkpt lat="41.18682" lon="44.89092">
        <ele>509.915699</ele>
        <time>2021-10-18T05:35:50.873Z</time>
      </trkpt>
      <trkpt lat="41.18533" lon="44.88871">
        <ele>513.773339</ele>
        <time>2021-10-18T05:36:50.860Z</time>
      </trkpt>
      <trkpt lat="41.18388" lon="44.88689">
        <ele>527.050403</ele>
        <time>2021-10-18T05:38:32.864Z</time>
      </trkpt>
      <trkpt lat="41.18192" lon="44.8865">
        <ele>539.106219</ele>
        <time>2021-10-18T05:40:15.864Z</time>
      </trkpt>
      <trkpt lat="41.1798" lon="44.88613">
        <ele>542.027836</ele>
        <time>2021-10-18T05:41:25.875Z</time>
      </trkpt>
      <trkpt lat="41.17827" lon="44.88408">
        <ele>538.699462</ele>
        <time>2021-10-18T05:42:16.868Z</time>
      </trkpt>
      <trkpt lat="41.17681" lon="44.88166">
        <ele>536.781641</ele>
        <time>2021-10-18T05:43:11.908Z</time>
      </trkpt>
      <trkpt lat="41.17644" lon="44.87889">
        <ele>537.798483</ele>
        <time>2021-10-18T05:44:12.860Z</time>
      </trkpt>
      <trkpt lat="41.17739" lon="44.87624">
        <ele>543.254578</ele>
        <time>2021-10-18T05:45:14.873Z</time>
      </trkpt>
      <trkpt lat="41.17879" lon="44.8738">
        <ele>542.822046</ele>
        <time>2021-10-18T05:46:14.870Z</time>
      </trkpt>
      <trkpt lat="41.18006" lon="44.87132">
        <ele>540.586943</ele>
        <time>2021-10-18T05:47:08.881Z</time>
      </trkpt>
      <trkpt lat="41.18102" lon="44.86865">
        <ele>537.517238</ele>
        <time>2021-10-18T05:47:56.879Z</time>
      </trkpt>
      <trkpt lat="41.18153" lon="44.86589">
        <ele>532.146899</ele>
        <time>2021-10-18T05:48:36.870Z</time>
      </trkpt>
      <trkpt lat="41.18091" lon="44.86342">
        <ele>532.501259</ele>
        <time>2021-10-18T05:49:47.878Z</time>
      </trkpt>
      <trkpt lat="41.17922" lon="44.86184">
        <ele>536.477873</ele>
        <time>2021-10-18T05:50:50.915Z</time>
      </trkpt>
      <trkpt lat="41.17774" lon="44.85993">
        <ele>542.458132</ele>
        <time>2021-10-18T05:51:53.877Z</time>
      </trkpt>
      <trkpt lat="41.17669" lon="44.85751">
        <ele>543.100811</ele>
        <time>2021-10-18T05:53:00.870Z</time>
      </trkpt>
      <trkpt lat="41.17579" lon="44.8551">
        <ele>547.207338</ele>
        <time>2021-10-18T05:54:07.871Z</time>
      </trkpt>
      <trkpt lat="41.17442" lon="44.85285">
        <ele>551.46423</ele>
        <time>2021-10-18T05:55:21.871Z</time>
      </trkpt>
      <trkpt lat="41.17281" lon="44.85126">
        <ele>547.280886</ele>
        <time>2021-10-18T05:56:50.874Z</time>
      </trkpt>
      <trkpt lat="41.1712" lon="44.84956">
        <ele>552.77576</ele>
        <time>2021-10-18T05:58:23.864Z</time>
      </trkpt>
      <trkpt lat="41.1696" lon="44.84767">
        <ele>558.919087</ele>
        <time>2021-10-18T05:59:48.875Z</time>
      </trkpt>
      <trkpt lat="41.16811" lon="44.8457">
        <ele>559.377704</ele>
        <time>2021-10-18T06:01:08.869Z</time>
      </trkpt>
      <trkpt lat="41.16663" lon="44.84376">
        <ele>571.18193</ele>
        <time>2021-10-18T06:02:39.858Z</time>
      </trkpt>
      <trkpt lat="41.16499" lon="44.84198">
        <ele>578.946961</ele>
        <time>2021-10-18T06:03:52.860Z</time>
      </trkpt>
      <trkpt lat="41.16316" lon="44.84041">
        <ele>571.371516</ele>
        <time>2021-10-18T06:04:46.866Z</time>
      </trkpt>
      <trkpt lat="41.16112" lon="44.83913">
        <ele>572.209976</ele>
        <time>2021-10-18T06:05:46.886Z</time>
      </trkpt>
      <trkpt lat="41.15889" lon="44.83783">
        <ele>567.395995</ele>
        <time>2021-10-18T06:06:44.868Z</time>
      </trkpt>
      <trkpt lat="41.15657" lon="44.83702">
        <ele>562.894048</ele>
        <time>2021-10-18T06:07:43.874Z</time>
      </trkpt>
      <trkpt lat="41.15442" lon="44.83725">
        <ele>571.884697</ele>
        <time>2021-10-18T06:08:51.871Z</time>
      </trkpt>
      <trkpt lat="41.1524" lon="44.83648">
        <ele>580.612438</ele>
        <time>2021-10-18T06:10:11.877Z</time>
      </trkpt>
      <trkpt lat="41.15103" lon="44.83448">
        <ele>589.827043</ele>
        <time>2021-10-18T06:11:32.867Z</time>
      </trkpt>
      <trkpt lat="41.15064" lon="44.83183">
        <ele>576.560462</ele>
        <time>2021-10-18T06:12:35.923Z</time>
      </trkpt>
      <trkpt lat="41.15092" lon="44.82877">
        <ele>569.556407</ele>
        <time>2021-10-18T06:13:47.872Z</time>
      </trkpt>
      <trkpt lat="41.14971" lon="44.8266">
        <ele>582.934017</ele>
        <time>2021-10-18T06:14:53.917Z</time>
      </trkpt>
      <trkpt lat="41.14848" lon="44.82443">
        <ele>591.890461</ele>
        <time>2021-10-18T06:16:08.880Z</time>
      </trkpt>
      <trkpt lat="41.14818" lon="44.82173">
        <ele>566.915463</ele>
        <time>2021-10-18T06:17:30.901Z</time>
      </trkpt>
      <trkpt lat="41.14812" lon="44.81907">
        <ele>570.316303</ele>
        <time>2021-10-18T06:18:52.879Z</time>
      </trkpt>
      <trkpt lat="41.14724" lon="44.81664">
        <ele>591.525859</ele>
        <time>2021-10-18T06:20:17.868Z</time>
      </trkpt>
      <trkpt lat="41.14571" lon="44.81451">
        <ele>588.918536</ele>
        <time>2021-10-18T06:21:40.902Z</time>
      </trkpt>
      <trkpt lat="41.14451" lon="44.81224">
        <ele>599.840674</ele>
        <time>2021-10-18T06:24:41.876Z</time>
      </trkpt>
      <trkpt lat="41.14349" lon="44.81">
        <ele>619.683714</ele>
        <time>2021-10-18T06:26:55.877Z</time>
      </trkpt>
      <trkpt lat="41.14266" lon="44.80756">
        <ele>625.634133</ele>
        <time>2021-10-18T06:28:21.879Z</time>
      </trkpt>
      <trkpt lat="41.14211" lon="44.80491">
        <ele>613.589069</ele>
        <time>2021-10-18T06:29:39.872Z</time>
      </trkpt>
      <trkpt lat="41.14225" lon="44.80219">
        <ele>592.880088</ele>
        <time>2021-10-18T06:30:51.882Z</time>
      </trkpt>
      <trkpt lat="41.14228" lon="44.79934">
        <ele>597.239968</ele>
        <time>2021-10-18T06:32:13.879Z</time>
      </trkpt>
      <trkpt lat="41.14295" lon="44.7972">
        <ele>592.914908</ele>
        <time>2021-10-18T06:33:21.856Z</time>
      </trkpt>
      <trkpt lat="41.14492" lon="44.79653">
        <ele>593.233581</ele>
        <time>2021-10-18T06:34:50.868Z</time>
      </trkpt>
      <trkpt lat="41.14618" lon="44.79439">
        <ele>594.338818</ele>
        <time>2021-10-18T06:36:00.895Z</time>
      </trkpt>
      <trkpt lat="41.1476" lon="44.79234">
        <ele>587.848747</ele>
        <time>2021-10-18T06:37:00.885Z</time>
      </trkpt>
      <trkpt lat="41.1485" lon="44.78987">
        <ele>586.229214</ele>
        <time>2021-10-18T06:38:02.893Z</time>
      </trkpt>
      <trkpt lat="41.14815" lon="44.78703">
        <ele>595.015126</ele>
        <time>2021-10-18T06:39:09.879Z</time>
      </trkpt>
      <trkpt lat="41.14785" lon="44.7843">
        <ele>602.472911</ele>
        <time>2021-10-18T06:40:41.871Z</time>
      </trkpt>
      <trkpt lat="41.14765" lon="44.78159">
        <ele>603.674533</ele>
        <time>2021-10-18T06:41:48.880Z</time>
      </trkpt>
      <trkpt lat="41.14609" lon="44.7801">
        <ele>616.197636</ele>
        <time>2021-10-18T06:42:53.919Z</time>
      </trkpt>
      <trkpt lat="41.14416" lon="44.77917">
        <ele>622.309731</ele>
        <time>2021-10-18T06:44:12.876Z</time>
      </trkpt>
      <trkpt lat="41.14259" lon="44.77748">
        <ele>615.115636</ele>
        <time>2021-10-18T06:45:12.871Z</time>
      </trkpt>
      <trkpt lat="41.14128" lon="44.77505">
        <ele>614.830574</ele>
        <time>2021-10-18T06:46:23.889Z</time>
      </trkpt>
      <trkpt lat="41.14012" lon="44.77262">
        <ele>617.23428</ele>
        <time>2021-10-18T06:47:20.876Z</time>
      </trkpt>
      <trkpt lat="41.13912" lon="44.7702">
        <ele>619.520186</ele>
        <time>2021-10-18T06:48:40.880Z</time>
      </trkpt>
      <trkpt lat="41.13714" lon="44.76897">
        <ele>616.134604</ele>
        <time>2021-10-18T06:49:36.878Z</time>
      </trkpt>
      <trkpt lat="41.13547" lon="44.76736">
        <ele>623.7913</ele>
        <time>2021-10-18T06:50:38.862Z</time>
      </trkpt>
      <trkpt lat="41.13417" lon="44.76529">
        <ele>624.292673</ele>
        <time>2021-10-18T06:52:02.889Z</time>
      </trkpt>
      <trkpt lat="41.13229" lon="44.7635">
        <ele>616.946275</ele>
        <time>2021-10-18T06:52:51.871Z</time>
      </trkpt>
      <trkpt lat="41.13086" lon="44.76122">
        <ele>619.742535</ele>
        <time>2021-10-18T06:53:52.888Z</time>
      </trkpt>
      <trkpt lat="41.12943" lon="44.75912">
        <ele>621.959326</ele>
        <time>2021-10-18T06:55:10.879Z</time>
      </trkpt>
      <trkpt lat="41.12795" lon="44.75731">
        <ele>623.932792</ele>
        <time>2021-10-18T06:56:23.864Z</time>
      </trkpt>
      <trkpt lat="41.12569" lon="44.75739">
        <ele>620.972047</ele>
        <time>2021-10-18T06:57:23.881Z</time>
      </trkpt>
      <trkpt lat="41.12426" lon="44.75563">
        <ele>628.250367</ele>
        <time>2021-10-18T06:58:35.872Z</time>
      </trkpt>
      <trkpt lat="41.12289" lon="44.75332">
        <ele>637.348395</ele>
        <time>2021-10-18T07:09:10.907Z</time>
      </trkpt>
      <trkpt lat="41.12077" lon="44.75329">
        <ele>628.176223</ele>
        <time>2021-10-18T07:09:53.919Z</time>
      </trkpt>
      <trkpt lat="41.11899" lon="44.75197">
        <ele>628.144619</ele>
        <time>2021-10-18T07:10:46.877Z</time>
      </trkpt>
      <trkpt lat="41.11807" lon="44.74954">
        <ele>639.415721</ele>
        <time>2021-10-18T07:11:46.872Z</time>
      </trkpt>
      <trkpt lat="41.11733" lon="44.7471">
        <ele>646.701991</ele>
        <time>2021-10-18T07:13:22.902Z</time>
      </trkpt>
      <trkpt lat="41.1166" lon="44.74456">
        <ele>650.654094</ele>
        <time>2021-10-18T07:14:52.913Z</time>
      </trkpt>
      <trkpt lat="41.11592" lon="44.74177">
        <ele>656.402665</ele>
        <time>2021-10-18T07:16:10.890Z</time>
      </trkpt>
      <trkpt lat="41.11517" lon="44.73906">
        <ele>651.947468</ele>
        <time>2021-10-18T07:17:25.895Z</time>
      </trkpt>
      <trkpt lat="41.1133" lon="44.7373">
        <ele>648.351068</ele>
        <time>2021-10-18T07:17:59.898Z</time>
      </trkpt>
      <trkpt lat="41.11275" lon="44.73455">
        <ele>654.025223</ele>
        <time>2021-10-18T07:19:06.875Z</time>
      </trkpt>
      <trkpt lat="41.11241" lon="44.73204">
        <ele>655.673634</ele>
        <time>2021-10-18T07:20:10.868Z</time>
      </trkpt>
      <trkpt lat="41.11228" lon="44.72963">
        <ele>665.818155</ele>
        <time>2021-10-18T07:21:12.890Z</time>
      </trkpt>
      <trkpt lat="41.11382" lon="44.72747">
        <ele>686.167396</ele>
        <time>2021-10-18T07:22:20.887Z</time>
      </trkpt>
      <trkpt lat="41.1152" lon="44.72524">
        <ele>676.147471</ele>
        <time>2021-10-18T07:23:20.886Z</time>
      </trkpt>
      <trkpt lat="41.11577" lon="44.72251">
        <ele>666.721731</ele>
        <time>2021-10-18T07:24:20.887Z</time>
      </trkpt>
      <trkpt lat="41.11517" lon="44.71986">
        <ele>661.135897</ele>
        <time>2021-10-18T07:25:20.877Z</time>
      </trkpt>
      <trkpt lat="41.11503" lon="44.7171">
        <ele>667.372152</ele>
        <time>2021-10-18T07:26:20.894Z</time>
      </trkpt>
      <trkpt lat="41.11335" lon="44.71525">
        <ele>652.876275</ele>
        <time>2021-10-18T07:27:15.914Z</time>
      </trkpt>
      <trkpt lat="41.112" lon="44.71318">
        <ele>648.75989</ele>
        <time>2021-10-18T07:28:18.894Z</time>
      </trkpt>
      <trkpt lat="41.10995" lon="44.71189">
        <ele>649.617891</ele>
        <time>2021-10-18T07:29:16.913Z</time>
      </trkpt>
      <trkpt lat="41.10779" lon="44.71113">
        <ele>647.060625</ele>
        <time>2021-10-18T07:30:11.930Z</time>
      </trkpt>
      <trkpt lat="41.10612" lon="44.70975">
        <ele>654.584862</ele>
        <time>2021-10-18T07:31:35.874Z</time>
      </trkpt>
      <trkpt lat="41.10514" lon="44.7075">
        <ele>668.99147</ele>
        <time>2021-10-18T07:33:26.877Z</time>
      </trkpt>
      <trkpt lat="41.10419" lon="44.70509">
        <ele>671.599807</ele>
        <time>2021-10-18T07:34:46.910Z</time>
      </trkpt>
      <trkpt lat="41.10233" lon="44.7027">
        <ele>669.234992</ele>
        <time>2021-10-18T07:35:38.913Z</time>
      </trkpt>
      <trkpt lat="41.10209" lon="44.7001">
        <ele>674.291105</ele>
        <time>2021-10-18T07:36:39.890Z</time>
      </trkpt>
      <trkpt lat="41.10143" lon="44.69759">
        <ele>675.948097</ele>
        <time>2021-10-18T07:37:43.882Z</time>
      </trkpt>
      <trkpt lat="41.09951" lon="44.69622">
        <ele>677.438342</ele>
        <time>2021-10-18T07:59:10.876Z</time>
      </trkpt>
      <trkpt lat="41.09739" lon="44.69587">
        <ele>676.726675</ele>
        <time>2021-10-18T08:00:16.853Z</time>
      </trkpt>
      <trkpt lat="41.09504" lon="44.69553">
        <ele>673.706663</ele>
        <time>2021-10-18T08:01:13.851Z</time>
      </trkpt>
      <trkpt lat="41.09277" lon="44.69511">
        <ele>673.41619</ele>
        <time>2021-10-18T08:02:21.854Z</time>
      </trkpt>
      <trkpt lat="41.09107" lon="44.69347">
        <ele>676.735681</ele>
        <time>2021-10-18T08:03:25.860Z</time>
      </trkpt>
      <trkpt lat="41.0907" lon="44.69108">
        <ele>700.039935</ele>
        <time>2021-10-18T08:05:21.853Z</time>
      </trkpt>
      <trkpt lat="41.09181" lon="44.68895">
        <ele>718.926913</ele>
        <time>2021-10-18T08:06:57.862Z</time>
      </trkpt>
      <trkpt lat="41.09228" lon="44.68619">
        <ele>718.073813</ele>
        <time>2021-10-18T08:08:00.851Z</time>
      </trkpt>
      <trkpt lat="41.09323" lon="44.68373">
        <ele>720.690317</ele>
        <time>2021-10-18T08:09:21.853Z</time>
      </trkpt>
      <trkpt lat="41.09416" lon="44.681">
        <ele>721.141544</ele>
        <time>2021-10-18T08:10:11.877Z</time>
      </trkpt>
      <trkpt lat="41.09527" lon="44.67867">
        <ele>714.007592</ele>
        <time>2021-10-18T08:11:21.879Z</time>
      </trkpt>
      <trkpt lat="41.09539" lon="44.67585">
        <ele>713.305849</ele>
        <time>2021-10-18T08:12:30.907Z</time>
      </trkpt>
      <trkpt lat="41.09677" lon="44.67263">
        <ele>715.348408</ele>
        <time>2021-10-18T08:13:10.894Z</time>
      </trkpt>
      <trkpt lat="41.09721" lon="44.66975">
        <ele>704.497841</ele>
        <time>2021-10-18T08:13:56.885Z</time>
      </trkpt>
      <trkpt lat="41.09733" lon="44.66656">
        <ele>705.435013</ele>
        <time>2021-10-18T08:14:47.878Z</time>
      </trkpt>
      <trkpt lat="41.09764" lon="44.66326">
        <ele>720.119079</ele>
        <time>2021-10-18T08:18:09.886Z</time>
      </trkpt>
      <trkpt lat="41.0983" lon="44.66071">
        <ele>730.570374</ele>
        <time>2021-10-18T08:19:59.893Z</time>
      </trkpt>
      <trkpt lat="41.09847" lon="44.65798">
        <ele>731.287346</ele>
        <time>2021-10-18T08:21:32.919Z</time>
      </trkpt>
      <trkpt lat="41.0986" lon="44.65531">
        <ele>735.365043</ele>
        <time>2021-10-18T08:23:07.869Z</time>
      </trkpt>
      <trkpt lat="41.09708" lon="44.65235">
        <ele>723.079765</ele>
        <time>2021-10-18T08:24:01.867Z</time>
      </trkpt>
      <trkpt lat="41.09612" lon="44.64945">
        <ele>712.105356</ele>
        <time>2021-10-18T08:24:58.876Z</time>
      </trkpt>
      <trkpt lat="41.09426" lon="44.64708">
        <ele>726.932218</ele>
        <time>2021-10-18T08:26:04.884Z</time>
      </trkpt>
      <trkpt lat="41.09214" lon="44.64604">
        <ele>723.901119</ele>
        <time>2021-10-18T08:26:29.886Z</time>
      </trkpt>
      <trkpt lat="41.09092" lon="44.64433">
        <ele>724.288876</ele>
        <time>2021-10-18T08:27:26.921Z</time>
      </trkpt>
      <trkpt lat="41.08943" lon="44.64263">
        <ele>733.325098</ele>
        <time>2021-10-18T08:28:50.885Z</time>
      </trkpt>
      <trkpt lat="41.08801" lon="44.64059">
        <ele>739.580503</ele>
        <time>2021-10-18T08:30:13.892Z</time>
      </trkpt>
      <trkpt lat="41.08713" lon="44.63788">
        <ele>747.079269</ele>
        <time>2021-10-18T08:31:07.873Z</time>
      </trkpt>
      <trkpt lat="41.087" lon="44.63486">
        <ele>745.184588</ele>
        <time>2021-10-18T08:31:55.878Z</time>
      </trkpt>
      <trkpt lat="41.08601" lon="44.63228">
        <ele>746.403459</ele>
        <time>2021-10-18T08:33:12.887Z</time>
      </trkpt>
      <trkpt lat="41.08558" lon="44.62964">
        <ele>763.682521</ele>
        <time>2021-10-18T08:34:37.888Z</time>
      </trkpt>
      <trkpt lat="41.08595" lon="44.62689">
        <ele>768.987089</ele>
        <time>2021-10-18T08:35:56.873Z</time>
      </trkpt>
      <trkpt lat="41.08584" lon="44.62368">
        <ele>767.68972</ele>
        <time>2021-10-18T08:36:53.882Z</time>
      </trkpt>
      <trkpt lat="41.08528" lon="44.62108">
        <ele>773.394737</ele>
        <time>2021-10-18T08:38:03.886Z</time>
      </trkpt>
      <trkpt lat="41.08419" lon="44.61859">
        <ele>787.945327</ele>
        <time>2021-10-18T08:39:08.872Z</time>
      </trkpt>
      <trkpt lat="41.08228" lon="44.61749">
        <ele>795.580244</ele>
        <time>2021-10-18T08:40:21.888Z</time>
      </trkpt>
      <trkpt lat="41.08142" lon="44.61512">
        <ele>791.239107</ele>
        <time>2021-10-18T08:43:04.888Z</time>
      </trkpt>
      <trkpt lat="41.07978" lon="44.61642">
        <ele>810.531341</ele>
        <time>2021-10-18T08:45:39.892Z</time>
      </trkpt>
      <trkpt lat="41.07791" lon="44.61681">
        <ele>830.235377</ele>
        <time>2021-10-18T08:48:18.879Z</time>
      </trkpt>
      <trkpt lat="41.07598" lon="44.61682">
        <ele>844.953012</ele>
        <time>2021-10-18T08:50:42.885Z</time>
      </trkpt>
      <trkpt lat="41.07394" lon="44.61674">
        <ele>840.703705</ele>
        <time>2021-10-18T08:52:16.890Z</time>
      </trkpt>
      <trkpt lat="41.07164" lon="44.61663">
        <ele>822.471479</ele>
        <time>2021-10-18T08:53:20.879Z</time>
      </trkpt>
      <trkpt lat="41.06962" lon="44.61752">
        <ele>812.383529</ele>
        <time>2021-10-18T08:54:18.904Z</time>
      </trkpt>
      <trkpt lat="41.06752" lon="44.61934">
        <ele>801.023171</ele>
        <time>2021-10-18T08:55:04.896Z</time>
      </trkpt>
      <trkpt lat="41.06579" lon="44.62103">
        <ele>803.560195</ele>
        <time>2021-10-18T08:55:54.882Z</time>
      </trkpt>
      <trkpt lat="41.06365" lon="44.62205">
        <ele>797.897323</ele>
        <time>2021-10-18T08:56:25.887Z</time>
      </trkpt>
      <trkpt lat="41.06138" lon="44.62328">
        <ele>796.610986</ele>
        <time>2021-10-18T08:57:11.875Z</time>
      </trkpt>
      <trkpt lat="41.05955" lon="44.62497">
        <ele>803.813364</ele>
        <time>2021-10-18T08:58:35.878Z</time>
      </trkpt>
      <trkpt lat="41.05776" lon="44.62628">
        <ele>805.229289</ele>
        <time>2021-10-18T08:59:59.886Z</time>
      </trkpt>
      <trkpt lat="41.0555" lon="44.62636">
        <ele>790.819782</ele>
        <time>2021-10-18T09:00:39.874Z</time>
      </trkpt>
      <trkpt lat="41.05321" lon="44.62678">
        <ele>793.261973</ele>
        <time>2021-10-18T09:01:28.862Z</time>
      </trkpt>
      <trkpt lat="41.05118" lon="44.6273">
        <ele>805.894643</ele>
        <time>2021-10-18T09:02:50.870Z</time>
      </trkpt>
      <trkpt lat="41.04904" lon="44.62748">
        <ele>805.742677</ele>
        <time>2021-10-18T09:04:12.880Z</time>
      </trkpt>
      <trkpt lat="41.0467" lon="44.62726">
        <ele>808.684117</ele>
        <time>2021-10-18T09:05:25.882Z</time>
      </trkpt>
      <trkpt lat="41.0445" lon="44.62768">
        <ele>813.083642</ele>
        <time>2021-10-18T09:06:31.880Z</time>
      </trkpt>
      <trkpt lat="41.04291" lon="44.62931">
        <ele>818.032919</ele>
        <time>2021-10-18T09:08:06.919Z</time>
      </trkpt>
      <trkpt lat="41.04103" lon="44.63021">
        <ele>816.417782</ele>
        <time>2021-10-18T09:09:34.885Z</time>
      </trkpt>
      <trkpt lat="41.03913" lon="44.63065">
        <ele>828.126476</ele>
        <time>2021-10-18T09:11:42.880Z</time>
      </trkpt>
      <trkpt lat="41.03736" lon="44.63187">
        <ele>840.614825</ele>
        <time>2021-10-18T09:13:47.916Z</time>
      </trkpt>
      <trkpt lat="41.03532" lon="44.63224">
        <ele>823.761587</ele>
        <time>2021-10-18T09:16:08.924Z</time>
      </trkpt>
      <trkpt lat="41.03348" lon="44.63321">
        <ele>823.517016</ele>
        <time>2021-10-18T09:17:48.874Z</time>
      </trkpt>
      <trkpt lat="41.03141" lon="44.63362">
        <ele>825.556923</ele>
        <time>2021-10-18T09:19:20.882Z</time>
      </trkpt>
      <trkpt lat="41.0293" lon="44.63422">
        <ele>830.539775</ele>
        <time>2021-10-18T09:20:35.942Z</time>
      </trkpt>
      <trkpt lat="41.02728" lon="44.63466">
        <ele>835.706333</ele>
        <time>2021-10-18T09:21:57.900Z</time>
      </trkpt>
      <trkpt lat="41.02532" lon="44.63495">
        <ele>838.127638</ele>
        <time>2021-10-18T09:23:29.882Z</time>
      </trkpt>
      <trkpt lat="41.02328" lon="44.63418">
        <ele>826.398931</ele>
        <time>2021-10-18T09:24:46.888Z</time>
      </trkpt>
      <trkpt lat="41.02135" lon="44.63436">
        <ele>827.684344</ele>
        <time>2021-10-18T09:26:17.881Z</time>
      </trkpt>
      <trkpt lat="41.01965" lon="44.63583">
        <ele>836.38366</ele>
        <time>2021-10-18T09:27:50.901Z</time>
      </trkpt>
      <trkpt lat="41.01757" lon="44.6356">
        <ele>826.892309</ele>
        <time>2021-10-18T09:29:11.910Z</time>
      </trkpt>
      <trkpt lat="41.01554" lon="44.63584">
        <ele>812.317931</ele>
        <time>2021-10-18T09:30:42.907Z</time>
      </trkpt>
      <trkpt lat="41.01412" lon="44.63774">
        <ele>832.954306</ele>
        <time>2021-10-18T09:31:58.898Z</time>
      </trkpt>
      <trkpt lat="41.01223" lon="44.63693">
        <ele>809.866737</ele>
        <time>2021-10-18T09:33:29.874Z</time>
      </trkpt>
      <trkpt lat="41.01024" lon="44.63651">
        <ele>799.489043</ele>
        <time>2021-10-18T09:34:58.878Z</time>
      </trkpt>
      <trkpt lat="41.00826" lon="44.63686">
        <ele>797.942278</ele>
        <time>2021-10-18T09:36:32.911Z</time>
      </trkpt>
      <trkpt lat="41.00627" lon="44.63732">
        <ele>817.412183</ele>
        <time>2021-10-18T09:38:07.896Z</time>
      </trkpt>
      <trkpt lat="41.00461" lon="44.63899">
        <ele>828.333382</ele>
        <time>2021-10-18T10:01:10.931Z</time>
      </trkpt>
      <trkpt lat="41.00334" lon="44.64124">
        <ele>834.452988</ele>
        <time>2021-10-18T10:02:32.875Z</time>
      </trkpt>
      <trkpt lat="41.0032" lon="44.64406">
        <ele>851.416181</ele>
        <time>2021-10-18T10:04:06.887Z</time>
      </trkpt>
      <trkpt lat="41.00239" lon="44.64635">
        <ele>851.895066</ele>
        <time>2021-10-18T10:05:39.878Z</time>
      </trkpt>
      <trkpt lat="41.0009" lon="44.6481">
        <ele>853.661179</ele>
        <time>2021-10-18T10:07:25.882Z</time>
      </trkpt>
      <trkpt lat="41.00083" lon="44.64943">
        <ele>853.661179</ele>
        <time>2021-10-18T10:09:30.329Z</time>
      </trkpt>
    </trkseg>
  </trk>
</gpx>